Crivitz, WI (54114)

6:23 AM CST on December 03, 2016 (GMT -0600)
Lake Noquebay | | Change Station

Elev 728 ft 45.29 °N, 87.91 °W | Updated 3 seconds ago

Overcast
Overcast
32.7 °F
Feels Like 33 °F
N
0.2
Wind Variable Wind from WSW
Gusts 2.5 mph

Today
High -- | Low -- °F
--% Chance of Precip.
Yesterday
High -- | Low -- °F
Precip. -- in
Pressure 30.35 in
Visibility 10.0 miles
Clouds Overcast 3400 ft
Windchill 33 °F
Dew Point 27 °F
Humidity 79%
Rainfall 0.00 in
Snow Depth Not available.
7:13 AM 4:10 PM
Waxing Crescent, 14% visible
METAR KMNM 031156Z AUTO 27003KT 10SM OVC034 01/M02 A3028 RMK AO2 SLP275 6//// 7//// T00061022 10017 20006 53004 FZRANO
Pressure 30.35 in
Visibility 10.0 miles
Clouds Overcast 3400 ft
Windchill 33 °F
Dew Point 27 °F
Humidity 79%
Rainfall 0.00 in
Snow Depth Not available.
7:13 AM 4:10 PM
Waxing Crescent, 14% visible
METAR KMNM 031156Z AUTO 27003KT 10SM OVC034 01/M02 A3028 RMK AO2 SLP275 6//// 7//// T00061022 10017 20006 53004 FZRANO

10-Day Weather Forecast

Almanac

Astronomy

Dec. 03, 2016 Rise Set
Actual Time
Civil Twilight
Nautical Twilight
Astronomical Twilight
Moon
Length of Visible Light
Length of Day
Tomorrow will be .
, % of the Moon is Illuminated

Today's Extremes

State Highs State Lows

Community

WunderPhotos

Upload Photos

1,955,429 photos uploaded!

WunderBlog® & News

Nearby

Air Quality

  Air Quality AQ Index Pollutant
Not available.

Snow Depth

Station Depth Elevation

Earthquake Activity

City Distance Mag. Time & Date
Minimum magnitude displayed is 2.5.

Coastal Water Temperatures

Place Temperature

Stations

Nearby Weather Stations

Station Location Temp. Windchill Dew Point Humidity Wind Precip. Elev Updated Type
                   

Watches & Warnings

There are currently no watches in effect.